KRCV

Astronaut Kent Rominger Airport

Del Norte, Colorado, USA
METAR KRCV 110255Z AUTO 26008KT 10SM CLR M09/M19 A3030 RMK AO2 T10911190
Observed Flight Rules
Dec-11 @ 02:55 UTC (9 minutes ago) Visual Flight Rules
Wind Visibility Clouds
260° at 8 knots 10 miles
  • Clear skies
Temperatures Readings
Current -9°C / 16°F
Dewpoint -19°C / -2°F
Humidity 45%
Altimeter 30.3" Hg
Pressure 1026 hPa
Elevation 2424
METAR KRCV 110255Z AUTO 26008KT 10SM CLR M09/M19 A3030 RMK AO2 T10911190
Observed Flight Rules
Dec-11 @ 02:55 UTC
(9 minutes ago)
VFR
Wind Visibility
260° at 8 knots 10 miles
Clouds
  • Clear skies
Temperature Dewpoint
-9°C / 16°F -19°C / -2°F
Humidity Altimeter Pressure
45% 30.3" Hg 1026 hPa